Time;durP1;ratioP1;P1;durP2;ratioP2;P2;SDS_P1;SDS_P2;PMS_P1;PMS_P2;Temp;Humidity;BMP_temperature;BMP_pressure;BME280_temperature;BME280_humidity;BME280_pressure;Samples;Min_cycle;Max_cycle;Signal;HPM_P1;HPM_P2
2023/07/13 00:00:15;;;;;;;;;;;;;;;16.71;80.74;101402.06;5068912;28;20048;-36
2023/07/13 00:02:41;;;;;;;5.97;1.60;;;;;;;16.54;83.51;101393.09;5069707;28;20472;-36
2023/07/13 00:05:06;;;;;;;;;;;;;;;16.71;81.30;101406.66;5070016;28;20104;-36
2023/07/13 00:07:32;;;;;;;6.45;1.52;;;;;;;16.41;83.47;101407.19;5070431;28;20360;-36
2023/07/13 00:09:58;;;;;;;;;;;;;;;16.57;81.91;101411.72;5066812;28;20028;-36
2023/07/13 00:12:35;;;;;;;8.20;1.73;;;;;;;16.36;84.21;101420.78;5056322;28;19913;-36
2023/07/13 00:15:13;;;;;;;4.80;1.40;;;;;;;16.48;83.65;101422.25;5056624;28;20040;-36
2023/07/13 00:17:38;;;;;;;4.38;1.45;;;;;;;16.37;84.47;101414.22;5056156;28;20028;-36
2023/07/13 00:20:04;;;;;;;;;;;;;;;16.52;82.15;101403.47;5056502;28;20029;-36
2023/07/13 00:22:30;;;;;;;4.75;1.55;;;;;;;16.39;84.95;101399.22;5056629;28;20357;-36
2023/07/13 00:24:58;;;;;;;;;;;;;;;16.50;82.86;101397.47;5057005;28;20036;-36
2023/07/13 00:27:26;;;;;;;4.97;1.52;;;;;;;16.23;86.09;101406.41;5056616;28;20296;-36
2023/07/13 00:29:52;;;;;;;4.03;1.50;;;;;;;16.18;86.17;101400.91;5055709;28;20098;-36
2023/07/13 00:32:18;;;;;;;4.28;1.45;;;;;;;16.15;85.99;101397.84;5055930;28;20029;-36
2023/07/13 00:34:43;;;;;;;;;;;;;;;16.35;84.61;101414.50;5056777;28;20032;-36
2023/07/13 00:37:08;;;;;;;7.03;1.60;;;;;;;16.14;86.23;101407.94;5056008;28;20019;-36
2023/07/13 00:39:34;;;;;;;;;;;;;;;16.27;84.11;101417.66;5056058;28;20353;-36
2023/07/13 00:58:49;;;;;;;6.70;1.48;;;;;;;15.85;89.43;101409.22;5055928;28;20132;-36
2023/07/13 01:01:15;;;;;;;6.20;1.50;;;;;;;15.83;89.32;101412.19;5056120;28;20029;-36
2023/07/13 01:03:40;;;;;;;;;;;;;;;15.98;87.74;101413.47;5055703;28;20355;-37
2023/07/13 01:06:06;;;;;;;4.45;1.30;;;;;;;15.80;89.71;101414.59;5055776;28;19909;-36
2023/07/13 01:08:32;;;;;;;;;;;;;;;15.93;87.19;101422.41;5055631;28;20538;-36
2023/07/13 01:10:58;;;;;;;4.70;1.60;;;;;;;15.66;91.54;101420.44;5055239;28;20371;-36
2023/07/13 01:13:24;;;;;;;;;;;;;;;15.89;88.71;101413.09;5055629;28;20033;-36
2023/07/13 01:15:51;;;;;;;4.73;1.43;;;;;;;15.78;90.12;101423.03;5054898;28;19912;-36
2023/07/13 01:18:26;;;;;;;2.53;1.17;;;;;;;15.75;91.56;101411.78;5055242;28;20036;-36
2023/07/13 01:21:09;;;;;;;4.60;1.50;;;;;;;15.77;91.50;101420.56;5055043;28;20029;-36
2023/07/13 01:23:34;;;;;;;6.28;1.55;;;;;;;15.65;91.41;101432.38;5054280;28;20056;-36
2023/07/13 01:26:00;;;;;;;;;;;;;;;15.83;89.63;101433.19;5055357;28;20033;-36
2023/07/13 01:28:27;;;;;;;4.18;1.52;;;;;;;15.69;91.67;101422.63;5055119;28;19961;-36
2023/07/13 01:30:54;;;;;;;6.55;2.15;;;;;;;15.68;92.55;101434.63;5054877;28;20029;-36
2023/07/13 01:33:19;;;;;;;6.55;1.90;;;;;;;15.58;93.04;101434.44;5054795;28;20025;-36
2023/07/13 01:35:45;;;;;;;;;;;;;;;15.78;89.79;101438.56;5055196;28;20036;-36
2023/07/13 01:38:12;;;;;;;4.60;1.38;;;;;;;15.57;92.88;101434.69;5054347;28;19909;-36
2023/07/13 01:40:38;;;;;;;4.97;1.77;;;;;;;15.69;92.73;101436.28;5055274;28;20396;-36
2023/07/13 01:43:03;;;;;;;;;;;;;;;15.78;90.04;101433.13;5054983;28;20029;-36
2023/07/13 01:45:29;;;;;;;5.60;1.30;;;;;;;15.60;92.60;101426.00;5054557;28;19909;-36
2023/07/13 01:47:54;;;;;;;;;;;;;;;15.79;89.80;101430.13;5055281;28;20513;-36
2023/07/13 01:50:20;;;;;;;6.43;1.55;;;;;;;15.64;92.21;101425.28;5054485;28;19909;-36
2023/07/13 01:52:45;;;;;;;;;;;;;;;15.78;89.59;101436.66;5055145;28;20466;-36
2023/07/13 01:55:10;;;;;;;4.45;1.70;;;;;;;15.67;92.21;101437.59;5054308;28;20272;-36
2023/07/13 01:57:36;;;;;;;;;;;;;;;15.76;90.24;101432.53;5055092;28;20051;-36
2023/07/13 02:00:04;;;;;;;8.40;1.80;;;;;;;15.54;93.30;101438.75;5055196;28;19970;-36
2023/07/13 02:02:30;;;;;;;5.80;1.60;;;;;;;15.45;93.73;101432.88;5054572;28;20275;-36
2023/07/13 02:04:56;;;;;;;4.95;1.40;;;;;;;15.39;94.93;101431.16;5054127;28;20108;-36
2023/07/13 02:07:21;;;;;;;;;;;;;;;15.58;92.27;101433.63;5055191;28;20043;-36
2023/07/13 02:09:46;;;;;;;5.13;1.40;;;;;;;15.48;94.40;101434.28;5054288;28;19935;-36
2023/07/13 02:12:12;;;;;;;;;;;;;;;15.54;92.33;101435.19;5054876;28;20029;-36
2023/07/13 02:14:38;;;;;;;5.70;1.63;;;;;;;15.39;95.04;101439.34;5054558;28;19908;-36
2023/07/13 02:17:03;;;;;;;7.05;1.50;;;;;;;15.26;96.13;101439.66;5054015;28;20263;-36
2023/07/13 02:19:29;;;;;;;4.97;1.83;;;;;;;15.26;96.51;101439.66;5054064;28;20032;-36
2023/07/13 02:21:54;;;;;;;;;;;;;;;15.35;94.20;101440.91;5054632;28;20036;-36
2023/07/13 02:24:20;;;;;;;4.23;1.50;;;;;;;15.18;96.45;101438.19;5053854;28;19916;-36
2023/07/13 02:26:46;;;;;;;5.50;1.70;;;;;;;15.05;97.14;101432.22;5053784;28;20739;-36
2023/07/13 02:29:11;;;;;;;;;;;;;;;15.22;94.79;101446.66;5053905;28;20029;-36
2023/07/13 02:31:37;;;;;;;5.00;1.60;;;;;;;15.14;96.90;101447.09;5054027;28;19909;-36
2023/07/13 02:34:03;;;;;;;7.15;1.70;;;;;;;15.14;97.31;101445.19;5053496;28;20307;-36
2023/07/13 02:36:29;;;;;;;4.47;1.55;;;;;;;15.06;98.71;101437.41;5053985;28;20111;-36
2023/07/13 02:38:54;;;;;;;;;;;;;;;15.24;96.12;101441.00;5053994;28;20446;-36
2023/07/13 02:41:20;;;;;;;7.23;1.50;;;;;;;15.12;98.42;101438.31;5053334;28;19913;-36
2023/07/13 02:43:46;;;;;;;8.90;2.67;;;;;;;15.15;98.18;101441.38;5053586;28;20413;-36
2023/07/13 02:46:11;;;;;;;;;;;;;;;15.26;95.64;101444.28;5054278;28;20025;-36
2023/07/13 02:48:38;;;;;;;6.73;1.90;;;;;;;15.03;99.02;101440.66;5053544;28;19913;-36
2023/07/13 02:51:04;;;;;;;4.55;1.70;;;;;;;15.13;99.49;101450.91;5053458;28;20267;-36
2023/07/13 02:53:30;;;;;;;;;;;;;;;15.20;97.56;101448.81;5053581;28;20393;-36
2023/07/13 02:55:55;;;;;;;7.82;1.98;;;;;;;15.03;99.94;101448.81;5053523;28;19912;-36
2023/07/13 02:58:20;;;;;;;;;;;;;;;15.13;97.71;101443.56;5053821;28;20041;-36
2023/07/13 03:00:47;;;;;;;6.43;1.75;;;;;;;15.01;99.69;101442.78;5053731;28;19991;-36
2023/07/13 03:03:13;;;;;;;7.25;1.63;;;;;;;15.02;100.00;101449.88;5053120;28;20033;-36
2023/07/13 03:05:42;;;;;;;4.60;1.55;;;;;;;14.94;100.00;101442.13;5053700;28;20112;-36
2023/07/13 03:08:09;;;;;;;6.65;1.88;;;;;;;14.96;100.00;101445.41;5053435;28;20040;-36
2023/07/13 03:10:34;;;;;;;7.50;1.83;;;;;;;14.92;100.00;101455.13;5052990;28;20029;-36
2023/07/13 03:13:00;;;;;;;;;;;;;;;15.02;99.22;101455.31;5054603;28;20039;-36
2023/07/13 03:15:25;;;;;;;5.82;1.50;;;;;;;14.95;100.00;101451.94;5053346;28;19913;-36
2023/07/13 03:17:50;;;;;;;7.72;1.85;;;;;;;14.86;100.00;101446.06;5053370;28;20479;-36
2023/07/13 03:20:16;;;;;;;;;;;;;;;15.01;99.61;101458.28;5053299;28;20029;-36
2023/07/13 03:22:41;;;;;;;5.18;1.40;;;;;;;14.86;100.00;101446.06;5053313;28;19913;-36
2023/07/13 03:25:07;;;;;;;10.40;1.90;;;;;;;14.85;100.00;101463.47;5053480;28;20108;-36
2023/07/13 03:27:33;;;;;;;6.05;1.77;;;;;;;14.83;100.00;101459.31;5053789;28;20044;-36
2023/07/13 03:29:58;;;;;;;3.97;1.80;;;;;;;14.80;100.00;101454.38;5053424;28;20033;-36
2023/07/13 03:32:23;;;;;;;;;;;;;;;14.94;100.00;101451.13;5054151;28;20025;-36
2023/07/13 03:34:49;;;;;;;5.47;1.70;;;;;;;14.79;100.00;101452.75;5053089;28;19935;-36
2023/07/13 03:37:14;;;;;;;;;;;;;;;14.93;100.00;101464.97;5054070;28;20507;-36
2023/07/13 03:39:39;;;;;;;4.40;1.83;;;;;;;14.84;100.00;101471.91;5052988;28;19966;-36
2023/07/13 03:42:05;;;;;;;9.43;2.42;;;;;;;14.72;100.00;101471.09;5052753;28;20318;-36
2023/07/13 03:44:30;;;;;;;;;;;;;;;14.85;100.00;101476.25;5053374;28;20108;-36
2023/07/13 03:46:56;;;;;;;6.50;2.30;;;;;;;14.69;100.00;101469.72;5056358;28;19908;-36
2023/07/13 03:49:21;;;;;;;8.00;2.10;;;;;;;14.75;100.00;101462.47;5056763;28;20628;-36
2023/07/13 03:51:46;;;;;;;;;;;;;;;14.80;100.00;101474.28;5057135;28;20024;-36
2023/07/13 03:54:12;;;;;;;8.48;1.88;;;;;;;14.67;100.00;101477.28;5056705;28;19913;-36
2023/07/13 03:56:37;;;;;;;10.18;2.05;;;;;;;14.76;100.00;101477.72;5056980;28;20060;-37
2023/07/13 03:59:02;;;;;;;;;;;;;;;14.83;100.00;101479.22;5057471;28;20041;-37
2023/07/13 04:01:28;;;;;;;9.48;2.33;;;;;;;14.77;100.00;101480.19;5056796;28;19917;-36
2023/07/13 04:03:53;;;;;;;;;;;;;;;14.85;100.00;101487.97;5055396;28;20473;-37
2023/07/13 04:06:21;;;;;;;6.05;2.08;;;;;;;14.66;100.00;101491.97;5056246;28;19913;-37
2023/07/13 04:08:50;;;;;;;8.25;2.40;;;;;;;14.60;100.00;101491.03;5056626;28;20108;-37
2023/07/13 04:11:16;;;;;;;7.05;2.30;;;;;;;14.58;100.00;101487.72;5056669;28;20029;-37
2023/07/13 04:13:41;;;;;;;;;;;;;;;14.79;100.00;101505.28;5057004;28;20410;-37
2023/07/13 04:16:06;;;;;;;10.13;2.80;;;;;;;14.70;100.00;101500.47;5056248;28;20004;-37
2023/07/13 04:18:32;;;;;;;4.60;1.80;;;;;;;14.70;100.00;101504.03;5056414;28;20672;-37
2023/07/13 04:20:57;;;;;;;;;;;;;;;14.81;100.00;101503.16;5056639;28;20044;-37
2023/07/13 04:23:22;;;;;;;5.93;2.23;;;;;;;14.76;100.00;101499.50;5055896;28;19999;-37
2023/07/13 04:25:49;;;;;;;7.13;2.42;;;;;;;14.74;100.00;101504.34;5056441;28;20333;-37
2023/07/13 04:28:17;;;;;;;7.80;2.10;;;;;;;14.77;100.00;101501.16;5055775;28;20033;-38
2023/07/13 04:30:43;;;;;;;9.68;2.88;;;;;;;14.74;100.00;101496.19;5056546;28;20469;-37
2023/07/13 04:33:08;;;;;;;;;;;;;;;14.88;100.00;101508.44;5055228;28;20029;-37
2023/07/13 04:35:34;;;;;;;7.55;2.78;;;;;;;14.77;100.00;101501.16;5055861;28;19909;-37
2023/07/13 04:38:00;;;;;;;8.18;2.10;;;;;;;14.79;100.00;101509.91;5056366;28;20377;-37
2023/07/13 04:40:26;;;;;;;;;;;;;;;14.93;100.00;101511.25;5056449;28;20045;-37
2023/07/13 04:42:51;;;;;;;9.82;3.20;;;;;;;14.82;100.00;101504.78;5055546;28;19919;-37
2023/07/13 04:45:17;;;;;;;;;;;;;;;14.96;100.00;101518.94;5055889;28;20393;-37
2023/07/13 04:47:42;;;;;;;9.07;3.38;;;;;;;14.91;100.00;101513.41;5056506;28;20281;-37
2023/07/13 04:50:08;;;;;;;;;;;;;;;15.04;100.00;101525.91;5055784;28;20107;-37
2023/07/13 04:52:34;;;;;;;8.00;3.17;;;;;;;15.01;100.00;101521.75;5056494;28;19920;-37
2023/07/13 04:55:00;;;;;;;;;;;;;;;15.12;100.00;101529.03;5055712;28;20025;-37
2023/07/13 04:57:26;;;;;;;9.00;4.28;;;;;;;15.08;100.00;101524.31;5056217;28;19913;-37
2023/07/13 04:59:52;;;;;;;11.57;4.40;;;;;;;15.07;100.00;101526.22;5055992;28;20196;-37
2023/07/13 05:02:17;;;;;;;;;;;;;;;15.23;100.00;101523.81;5056486;28;20473;-37
2023/07/13 05:04:46;;;;;;;12.70;4.28;;;;;;;15.22;100.00;101517.50;5055131;28;20007;-36
2023/07/13 05:07:11;;;;;;;10.60;4.70;;;;;;;15.25;100.00;101536.09;5055090;28;20061;-37
2023/07/13 05:09:37;;;;;;;;;;;;;;;15.38;100.00;101529.50;5055720;28;20072;-37
2023/07/13 05:12:03;;;;;;;12.93;5.18;;;;;;;15.40;100.00;101527.34;5055512;28;20353;-37
2023/07/13 05:14:28;;;;;;;;;;;;;;;15.49;100.00;101528.59;5055626;28;20076;-37
2023/07/13 05:16:53;;;;;;;17.57;5.90;;;;;;;15.47;100.00;101533.50;5055762;28;20396;-37
2023/07/13 05:19:18;;;;;;;;;;;;;;;15.58;100.00;101523.56;5055182;28;20287;-37
2023/07/13 05:21:44;;;;;;;14.27;5.43;;;;;;;15.45;100.00;101514.63;5055085;28;19912;-37
2023/07/13 05:24:09;;;;;;;;;;;;;;;15.65;100.00;101541.44;5055096;28;20298;-37
2023/07/13 05:26:34;;;;;;;16.45;6.30;;;;;;;15.57;100.00;101535.56;5054655;28;19912;-37
2023/07/13 05:28:59;;;;;;;;;;;;;;;15.74;100.00;101543.75;5055007;28;20032;-37
2023/07/13 05:31:25;;;;;;;14.70;6.30;;;;;;;15.72;100.00;101540.47;5055445;28;19978;-37
2023/07/13 05:33:50;;;;;;;;;;;;;;;15.84;100.00;101546.66;5055854;28;20364;-37
2023/07/13 05:36:16;;;;;;;12.02;6.30;;;;;;;15.79;100.00;101546.56;5054759;28;19912;-37
2023/07/13 05:38:41;;;;;;;;;;;;;;;15.93;100.00;101551.44;5055070;28;20032;-37
2023/07/13 05:41:06;;;;;;;13.15;7.10;;;;;;;15.99;100.00;101549.59;5054659;28;20373;-37
2023/07/13 05:43:32;;;;;;;;;;;;;;;16.11;100.00;101547.63;5055097;28;20040;-37
2023/07/13 05:45:57;;;;;;;17.67;7.57;;;;;;;16.13;100.00;101547.34;5055188;28;19920;-37
2023/07/13 05:48:23;;;;;;;;;;;;;;;16.26;100.00;101551.63;5054713;28;20079;-37
2023/07/13 05:50:49;;;;;;;18.23;7.88;;;;;;;16.22;100.00;101554.88;5054800;28;19912;-37
2023/07/13 05:53:14;;;;;;;19.77;8.20;;;;;;;16.31;100.00;101548.97;5054138;28;20496;-37
2023/07/13 05:55:44;;;;;;;;;;;;;;;16.39;100.00;101559.44;5054836;28;20060;-37
2023/07/13 05:58:10;;;;;;;19.88;8.55;;;;;;;16.29;100.00;101560.13;5053824;28;19916;-37
2023/07/13 06:00:36;;;;;;;17.80;8.77;;;;;;;16.32;100.00;101556.91;5054284;28;20028;-37
2023/07/13 06:03:01;;;;;;;;;;;;;;;16.42;100.00;101572.59;5054397;28;20021;-37
2023/07/13 06:05:28;;;;;;;17.85;8.75;;;;;;;16.31;100.00;101573.53;5053976;28;19908;-37
2023/07/13 06:07:54;;;;;;;17.35;8.55;;;;;;;16.32;100.00;101578.75;5053973;28;20025;-37
2023/07/13 06:10:19;;;;;;;;;;;;;;;16.47;100.00;101572.66;5054802;28;20029;-37
2023/07/13 06:12:45;;;;;;;20.13;8.77;;;;;;;16.44;100.00;101578.63;5054397;28;20348;-37
2023/07/13 06:15:10;;;;;;;;;;;;;;;16.54;100.00;101577.94;5054485;28;20747;-37
2023/07/13 06:17:35;;;;;;;15.80;7.78;;;;;;;16.54;100.00;101573.28;5053997;28;20311;-37
2023/07/13 06:20:00;;;;;;;;;;;;;;;16.65;100.00;101575.09;5054290;28;20090;-37
2023/07/13 06:22:26;;;;;;;20.83;8.27;;;;;;;16.60;100.00;101577.75;5053896;28;19920;-37
2023/07/13 06:24:51;;;;;;;;;;;;;;;16.76;100.00;101583.44;5054257;28;20287;-37
2023/07/13 06:27:17;;;;;;;19.70;8.25;;;;;;;16.77;100.00;101588.66;5054410;28;19912;-36
2023/07/13 06:29:44;;;;;;;;;;;;;;;16.88;100.00;101584.13;5054194;28;20112;-37
2023/07/13 06:32:10;;;;;;;20.92;8.60;;;;;;;16.80;100.00;101573.66;5054079;28;19956;-37
2023/07/13 06:34:35;;;;;;;;;;;;;;;16.97;100.00;101580.69;5053917;28;20535;-36
2023/07/13 06:37:01;;;;;;;14.73;7.72;;;;;;;16.99;100.00;101584.00;5053432;28;19943;-36
2023/07/13 06:39:26;;;;;;;18.38;8.85;;;;;;;17.02;100.00;101585.38;5053608;28;20029;-36
2023/07/13 06:41:51;;;;;;;;;;;;;;;17.18;100.00;101587.22;5054678;28;20487;-36
2023/07/13 06:44:17;;;;;;;22.00;8.70;;;;;;;17.15;100.00;101590.47;5053909;28;19948;-36
2023/07/13 06:46:42;;;;;;;;;;;;;;;17.23;100.00;101592.75;5054348;28;20256;-36
2023/07/13 06:49:09;;;;;;;13.35;7.85;;;;;;;17.17;100.00;101601.94;5053793;28;19915;-36
2023/07/13 06:51:34;;;;;;;18.25;8.57;;;;;;;17.18;100.00;101589.97;5053478;28;20029;-36
2023/07/13 06:53:59;;;;;;;16.70;8.20;;;;;;;17.22;100.00;101595.72;5053486;28;20017;-36
2023/07/13 06:56:25;;;;;;;;;;;;;;;17.34;100.00;101595.59;5053994;28;20115;-37
2023/07/13 06:58:50;;;;;;;15.82;7.85;;;;;;;17.29;100.00;101599.09;5053683;28;19969;-37
2023/07/13 07:01:15;;;;;;;;;;;;;;;17.39;100.00;101603.81;5054195;28;20466;-37
2023/07/13 07:03:40;;;;;;;16.37;7.77;;;;;;;17.26;100.00;101602.31;5053432;28;19917;-37
2023/07/13 07:06:11;;;;;;;;;;;;;;;17.39;100.00;101609.31;5053855;28;20740;-37
2023/07/13 07:08:37;;;;;;;14.80;7.57;;;;;;;17.27;100.00;101597.69;5053329;28;20368;-37
2023/07/13 07:11:02;;;;;;;18.80;8.50;;;;;;;17.39;100.00;101614.75;5053813;28;20116;-37
2023/07/13 07:13:28;;;;;;;;;;;;;;;17.50;100.00;101608.31;5054009;28;20025;-37
2023/07/13 07:15:53;;;;;;;14.93;8.07;;;;;;;17.45;100.00;101613.72;5053548;28;19909;-37
2023/07/13 07:18:19;;;;;;;16.17;8.32;;;;;;;17.53;100.00;101604.25;5053688;28;20526;-37
2023/07/13 07:20:44;;;;;;;;;;;;;;;17.62;100.00;101614.47;5055233;28;20094;-37
2023/07/13 07:23:09;;;;;;;16.20;9.80;;;;;;;17.51;100.00;101605.31;5057004;28;19915;-37
2023/07/13 07:25:36;;;;;;;;;;;;;;;17.70;100.00;101615.88;5058197;28;20275;-37
2023/07/13 07:28:02;;;;;;;17.48;8.45;;;;;;;17.56;100.00;101617.38;5057206;28;19912;-37
2023/07/13 07:30:28;;;;;;;;;;;;;;;17.60;100.00;101615.78;5058121;28;20090;-37
2023/07/13 07:32:53;;;;;;;17.53;7.73;;;;;;;17.54;100.00;101620.38;5057641;28;19908;-37
2023/07/13 07:35:18;;;;;;;;;;;;;;;17.67;100.00;101627.34;5058026;28;20295;-37
2023/07/13 07:37:44;;;;;;;16.27;7.65;;;;;;;17.52;100.00;101619.84;5057346;28;20356;-37
2023/07/13 07:40:09;;;;;;;;;;;;;;;17.69;100.00;101625.16;5057384;28;20028;-37
2023/07/13 07:42:34;;;;;;;17.08;6.82;;;;;;;17.72;100.00;101622.75;5056844;28;19913;-37
2023/07/13 07:45:00;;;;;;;;;;;;;;;17.89;100.00;101619.91;5057614;28;20052;-37
2023/07/13 07:47:26;;;;;;;16.17;7.22;;;;;;;17.94;100.00;101621.84;5057128;28;19913;-36
2023/07/13 07:49:52;;;;;;;15.02;6.82;;;;;;;18.04;100.00;101608.25;5057082;28;20033;-37
2023/07/13 07:52:17;;;;;;;;;;;;;;;18.25;100.00;101618.28;5057210;28;20431;-36
2023/07/13 07:54:43;;;;;;;12.48;6.78;;;;;;;18.44;100.00;101609.59;5072083;28;20011;-36
2023/07/13 07:57:08;;;;;;;15.48;6.75;;;;;;;18.57;100.00;101613.81;5057217;28;20111;-36
2023/07/13 07:59:33;;;;;;;;;;;;;;;18.71;100.00;101615.81;5056845;28;20122;-37
2023/07/13 08:01:58;;;;;;;13.40;5.67;;;;;;;18.81;99.17;101611.47;5056841;28;19917;-36
2023/07/13 08:04:24;;;;;;;;;;;;;;;18.97;100.00;101621.41;5056973;28;20267;-37
2023/07/13 08:06:49;;;;;;;10.67;5.33;;;;;;;18.91;95.07;101622.47;5056488;28;19920;-37
2023/07/13 08:09:14;;;;;;;;;;;;;;;19.01;97.55;101626.09;5057674;28;20267;-36
2023/07/13 08:11:40;;;;;;;13.43;5.73;;;;;;;18.94;95.84;101624.69;5057217;28;19913;-36
2023/07/13 08:14:05;;;;;;;;;;;;;;;19.13;96.59;101623.13;5056722;28;20317;-36
2023/07/13 08:16:32;;;;;;;9.82;4.70;;;;;;;19.24;94.37;101613.00;5056595;28;20307;-36
2023/07/13 08:18:58;;;;;;;11.30;5.28;;;;;;;19.37;91.31;101628.09;5056349;28;20025;-36
2023/07/13 08:21:23;;;;;;;14.38;5.10;;;;;;;19.26;90.79;101633.56;5056418;28;20087;-37
2023/07/13 08:23:49;;;;;;;9.57;4.38;;;;;;;19.40;91.96;101628.38;5056088;28;20025;-37
2023/07/13 08:26:14;;;;;;;11.82;4.47;;;;;;;19.33;89.68;101632.50;5056421;28;20067;-36
2023/07/13 08:28:39;;;;;;;10.98;4.47;;;;;;;19.29;90.84;101624.81;5055815;28;20644;-37
2023/07/13 08:31:09;;;;;;;10.05;4.50;;;;;;;19.33;93.05;101633.31;5056186;28;20429;-36
2023/07/13 08:33:35;;;;;;;10.35;4.65;;;;;;;19.29;89.34;101624.00;5055748;28;20032;-36
2023/07/13 08:36:01;;;;;;;14.48;4.75;;;;;;;19.41;89.08;101623.72;5056595;28;20056;-36
2023/07/13 08:38:27;;;;;;;7.97;3.70;;;;;;;19.68;89.95;101613.38;5056144;28;20068;-36
2023/07/13 08:40:55;;;;;;;10.00;4.43;;;;;;;20.00;86.50;101626.00;5055920;28;20125;-36
2023/07/13 08:43:26;;;;;;;8.32;3.47;;;;;;;20.14;85.07;101620.78;5055770;28;20116;-37
2023/07/13 08:46:02;;;;;;;13.40;4.05;;;;;;;20.14;84.73;101620.78;5056597;28;20174;-36
2023/07/13 08:48:34;;;;;;;7.93;3.63;;;;;;;20.20;83.95;101625.97;5055726;28;20029;-36
2023/07/13 08:51:27;;;;;;;9.70;3.47;;;;;;;20.07;83.00;101632.06;5055632;28;20129;-37
2023/07/13 08:53:58;;;;;;;10.50;3.45;;;;;;;19.98;81.24;101614.47;5055820;28;20377;-36
2023/07/13 08:56:26;;;;;;;6.82;3.80;;;;;;;20.21;83.70;101619.41;5056166;28;20029;-36
2023/07/13 08:58:57;;;;;;;7.80;4.03;;;;;;;20.27;81.63;101621.03;5053970;28;20396;-36
2023/07/13 09:01:42;;;;;;;10.57;3.90;;;;;;;20.40;82.30;101618.81;5055437;28;20049;-36
2023/07/13 09:04:14;;;;;;;7.43;3.60;;;;;;;20.51;82.08;101620.47;5054764;28;20452;-37
2023/07/13 09:06:48;;;;;;;10.02;3.75;;;;;;;20.61;78.68;101606.69;5055368;28;20037;-37
2023/07/13 09:09:27;;;;;;;8.63;3.60;;;;;;;20.63;79.32;101623.72;5055383;28;20381;-37
2023/07/13 09:12:19;;;;;;;7.50;3.40;;;;;;;20.78;79.98;101612.66;5055237;28;20044;-37
2023/07/13 09:14:48;;;;;;;7.57;3.45;;;;;;;20.78;78.71;101620.91;5055528;28;20402;-37
2023/07/13 09:17:22;;;;;;;7.10;3.08;;;;;;;20.88;78.26;101611.00;5055195;28;20112;-37
2023/07/13 09:19:56;;;;;;;9.30;3.67;;;;;;;20.83;77.85;101622.81;5055330;28;20080;-37
2023/07/13 09:22:27;;;;;;;7.68;3.45;;;;;;;20.75;77.57;101616.00;5055067;28;20036;-38
2023/07/13 09:24:57;;;;;;;9.10;3.63;;;;;;;20.93;78.61;101611.78;5055360;28;20060;-38
2023/07/13 09:27:30;;;;;;;7.50;3.63;;;;;;;21.11;77.06;101607.59;5055011;28;20043;-37
2023/07/13 09:30:07;;;;;;;8.80;3.40;;;;;;;21.33;75.08;101598.97;5055466;28;20060;-37
2023/07/13 09:32:33;;;;;;;10.95;4.22;;;;;;;21.34;74.59;101614.38;5054595;28;20044;-37
2023/07/13 09:35:01;;;;;;;10.85;3.65;;;;;;;21.19;75.89;101608.94;5054551;28;20035;-38
2023/07/13 09:37:32;;;;;;;9.05;3.92;;;;;;;20.88;75.90;101614.56;5054774;28;20469;-37
2023/07/13 09:39:59;;;;;;;5.40;3.60;;;;;;;20.88;75.07;101608.25;5055258;28;20098;-38
2023/07/13 09:42:25;;;;;;;9.93;3.70;;;;;;;21.00;74.86;101595.81;5054291;28;20104;-38
2023/07/13 09:44:56;;;;;;;10.13;4.43;;;;;;;21.23;76.45;101604.50;5054162;28;20029;-38
2023/07/13 09:47:27;;;;;;;7.50;3.53;;;;;;;21.59;77.18;101603.19;5054841;28;20098;-38
2023/07/13 09:50:01;;;;;;;7.28;3.65;;;;;;;21.81;74.93;101610.16;5054790;28;20452;-38
2023/07/13 09:52:38;;;;;;;12.70;3.80;;;;;;;21.78;72.88;101606.06;5054851;28;20032;-38
2023/07/13 09:55:04;;;;;;;6.97;3.50;;;;;;;21.70;72.70;101614.94;5054171;28;20025;-38
2023/07/13 09:57:29;;;;;;;3.95;2.80;;;;;;;21.76;72.34;101618.47;5054968;28;20028;-38
2023/07/13 09:59:56;;;;;;;7.70;3.50;;;;;;;21.72;72.56;101606.41;5054380;28;20087;-38
2023/07/13 10:02:33;;;;;;;7.70;2.90;;;;;;;21.88;71.26;101615.34;5054645;28;20401;-38
2023/07/13 10:04:58;;;;;;;8.77;3.17;;;;;;;22.13;70.41;101626.16;5054534;28;20066;-38
2023/07/13 10:07:24;;;;;;;7.07;3.13;;;;;;;22.22;70.16;101621.66;5053895;28;20112;-38
2023/07/13 10:09:58;;;;;;;6.97;2.92;;;;;;;22.01;70.04;101617.41;5054088;28;20040;-38
2023/07/13 10:12:24;;;;;;;9.35;3.50;;;;;;;21.68;70.85;101628.16;5054462;28;20029;-38
2023/07/13 10:14:56;;;;;;;8.50;3.10;;;;;;;21.33;73.40;101631.97;5054035;28;20025;-38
2023/07/13 10:17:40;;;;;;;5.93;2.95;;;;;;;21.20;76.36;101627.06;5054334;28;20053;-38
2023/07/13 10:20:10;;;;;;;7.00;3.40;;;;;;;20.98;78.48;101630.19;5054203;28;20025;-37
2023/07/13 10:22:49;;;;;;;6.07;3.10;;;;;;;20.83;78.35;101629.16;5054515;28;20063;-38
2023/07/13 10:25:22;;;;;;;7.97;3.00;;;;;;;20.89;76.63;101621.72;5054488;28;20033;-38
2023/07/13 10:27:50;;;;;;;6.55;3.20;;;;;;;20.86;75.21;101619.53;5053911;28;20028;-38
2023/07/13 10:30:28;;;;;;;6.15;3.13;;;;;;;21.01;76.13;101629.63;5053519;28;20025;-38
2023/07/13 10:32:54;;;;;;;6.68;2.75;;;;;;;21.09;75.56;101627.13;5053796;28;20025;-38
2023/07/13 10:35:22;;;;;;;6.82;3.05;;;;;;;20.95;73.94;101617.03;5053445;28;20031;-38
2023/07/13 10:38:01;;;;;;;8.32;2.83;;;;;;;21.22;74.66;101624.84;5053726;28;20033;-38
2023/07/13 10:40:37;;;;;;;5.25;2.70;;;;;;;21.63;71.50;101625.44;5054118;28;20028;-38
2023/07/13 10:43:13;;;;;;;6.25;2.83;;;;;;;21.91;70.01;101625.78;5054465;28;20059;-38
2023/07/13 10:45:40;;;;;;;7.22;3.10;;;;;;;22.19;70.13;101633.25;5053908;28;20029;-38
2023/07/13 10:48:11;;;;;;;7.57;2.90;;;;;;;22.19;68.60;101641.53;5053840;28;20064;-38
2023/07/13 10:50:40;;;;;;;6.70;2.88;;;;;;;22.41;68.64;101640.22;5053607;28;20029;-38
2023/07/13 10:53:21;;;;;;;7.47;3.13;;;;;;;22.69;70.38;101635.75;5053454;28;20102;-38
2023/07/13 10:55:53;;;;;;;4.75;2.70;;;;;;;22.78;66.43;101645.84;5053274;28;20063;-38
2023/07/13 10:58:22;;;;;;;7.63;2.40;;;;;;;22.93;68.41;101642.13;5053342;28;20118;-38
2023/07/13 11:00:56;;;;;;;8.02;3.03;;;;;;;23.06;67.98;101651.63;5053018;28;20063;-38
2023/07/13 11:03:23;;;;;;;6.85;2.83;;;;;;;23.06;65.75;101662.66;5053126;28;20503;-38
2023/07/13 11:06:08;;;;;;;7.47;2.70;;;;;;;22.90;68.82;101647.44;5052141;28;20094;-38
2023/07/13 11:08:37;;;;;;;6.28;2.80;;;;;;;22.87;67.36;101666.16;5053205;28;20041;-37
2023/07/13 11:11:03;;;;;;;6.70;2.85;;;;;;;22.93;68.35;101655.09;5053239;28;20033;-37
2023/07/13 11:13:49;;;;;;;5.75;2.03;;;;;;;22.82;69.14;101662.66;5052941;28;20033;-38
2023/07/13 11:16:17;;;;;;;;;;;;;;;22.86;66.82;101658.19;5054007;28;20534;-36
2023/07/13 11:19:13;;;;;;;8.15;2.95;;;;;;;22.67;67.52;101651.78;5053324;28;19991;-37
2023/07/13 11:22:07;;;;;;;4.70;2.38;;;;;;;22.61;68.29;101656.53;5053070;28;20037;-38
2023/07/13 11:24:59;;;;;;;7.10;2.70;;;;;;;22.34;67.73;101657.91;5053495;28;20110;-37
2023/07/13 11:27:38;;;;;;;8.25;3.90;;;;;;;21.89;74.96;101653.59;5053495;28;20025;-37
2023/07/13 11:30:27;;;;;;;6.63;2.80;;;;;;;21.77;76.40;101666.91;5053067;28;20025;-37
2023/07/13 11:33:08;;;;;;;7.28;2.90;;;;;;;21.57;81.79;101665.13;5049963;28;20048;-37
2023/07/13 11:35:41;;;;;;;7.15;3.42;;;;;;;21.55;83.03;101670.09;5053089;28;20021;-37
2023/07/13 11:38:33;;;;;;;5.35;3.03;;;;;;;21.76;82.38;101674.34;5052773;28;20025;-37
2023/07/13 11:41:03;;;;;;;8.00;3.08;;;;;;;21.62;79.98;101667.00;5050220;28;20048;-37
2023/07/13 11:43:29;;;;;;;6.05;3.03;;;;;;;21.67;80.41;101667.81;5053069;28;20025;-37
2023/07/13 11:45:54;;;;;;;6.47;2.65;;;;;;;21.64;77.46;101660.13;5053533;28;20074;-37
2023/07/13 11:48:24;;;;;;;8.50;3.13;;;;;;;21.55;76.12;101668.16;5053531;28;20036;-37
2023/07/13 11:51:04;;;;;;;5.43;2.50;;;;;;;21.43;74.55;101661.38;5053254;28;20427;-37
2023/07/13 11:53:40;;;;;;;4.88;2.30;;;;;;;21.29;74.63;101661.94;5053265;28;20055;-37
2023/07/13 11:56:06;;;;;;;5.50;2.27;;;;;;;21.30;76.81;101651.75;5052945;28;20029;-37